Saginaw, Oregon
Current Conditions -  °F | °C
As of 3:54 AM on Wednesday 28 Jan 2015 (Local Time) from KEUG Reporting Station
Clear Clear  
Wind Chill: 47°   Ceiling: Unl
Heat Index: 47°   Visibility: 10mi
Dew Point: 45°   Wind: 0mph
Humidity: 93%   Direction: NA
Pressure: 30.3"   Gusts: NA
Location:  43.83°N, 123.04°W
Report Text: KEUG 281154Z AUTO 00000KT 10SM CLR 08/07 A3030 RMK AO2 SLP260 T00830072 10106 20072 51004
Loading
Personal Weather Stations






























Interactive Weather Map New forecast layout! Learn more

10-Day Weather Forecast

Advertisements
Track Severe Weather on mobile